createdAt,value
2019-05-05T00:00:55.019Z,19.13
2019-05-05T00:03:38.274Z,22.43
2019-05-05T00:06:08.966Z,22.27
2019-05-05T00:08:38.318Z,16.63
2019-05-05T00:11:09.347Z,15.50
2019-05-05T00:13:52.045Z,18.20
2019-05-05T00:16:25.545Z,18.90
2019-05-05T00:18:55.193Z,19.70
2019-05-05T00:21:24.634Z,16.80
2019-05-05T00:23:55.342Z,20.87
2019-05-05T00:26:24.865Z,17.67
2019-05-05T00:28:55.352Z,19.67
2019-05-05T00:31:24.984Z,17.77
2019-05-05T00:33:54.579Z,18.50
2019-05-05T00:36:24.631Z,16.53
2019-05-05T00:38:55.147Z,16.60
2019-05-05T00:41:25.444Z,14.53
2019-05-05T00:43:55.449Z,18.20
2019-05-05T00:46:44.702Z,18.97
2019-05-05T00:49:14.613Z,16.63
2019-05-05T00:51:44.397Z,14.50
2019-05-05T00:54:14.887Z,14.57
2019-05-05T00:56:45.057Z,13.97
2019-05-05T00:59:16.145Z,15.43
2019-05-05T01:02:04.624Z,15.53
2019-05-05T01:04:42.080Z,12.93
2019-05-05T01:07:11.523Z,16.63
2019-05-05T01:09:42.541Z,19.30
2019-05-05T01:12:12.222Z,17.43
2019-05-05T01:14:41.594Z,17.47
2019-05-05T01:17:10.896Z,20.63
2019-05-05T01:19:40.291Z,21.27
2019-05-05T01:22:09.931Z,18.17
2019-05-05T01:24:39.305Z,20.43
2019-05-05T01:27:08.810Z,20.00
2019-05-05T01:29:38.178Z,17.30
2019-05-05T01:32:09.195Z,22.40
2019-05-05T01:34:44.371Z,22.30
2019-05-05T01:37:18.663Z,21.37
2019-05-05T01:40:05.073Z,23.03
2019-05-05T01:42:35.294Z,22.10
2019-05-05T01:45:05.444Z,21.67
2019-05-05T01:47:34.845Z,22.60
2019-05-05T01:50:17.152Z,21.30
2019-05-05T01:52:37.775Z,22.70
2019-05-05T01:55:07.378Z,24.63
2019-05-05T01:57:36.852Z,24.27
2019-05-05T02:00:07.794Z,25.90
2019-05-05T02:02:37.496Z,24.27
2019-05-05T02:05:07.266Z,30.40
2019-05-05T02:07:36.648Z,27.67
2019-05-05T02:10:08.232Z,30.37
2019-05-05T02:12:37.603Z,31.03
2019-05-05T02:15:08.068Z,28.87
2019-05-05T02:17:37.462Z,27.37
2019-05-05T02:20:07.322Z,29.40
2019-05-05T02:22:36.747Z,30.23
2019-05-05T02:25:07.672Z,30.50
2019-05-05T02:27:37.105Z,32.07
2019-05-05T02:30:18.209Z,33.30
2019-05-05T02:32:49.220Z,33.23
2019-05-05T02:35:18.597Z,35.73
2019-05-05T02:37:48.081Z,35.50
2019-05-05T02:40:18.250Z,32.27
2019-05-05T02:42:49.084Z,35.50
2019-05-05T02:45:27.512Z,34.07
2019-05-05T02:48:01.807Z,33.50
2019-05-05T02:50:50.993Z,33.73
2019-05-05T02:53:06.174Z,37.00
2019-05-05T02:55:35.764Z,30.97
2019-05-05T02:58:05.269Z,32.60
2019-05-05T03:00:36.377Z,31.40
2019-05-05T03:03:08.016Z,32.57
2019-05-05T03:05:37.722Z,32.90
2019-05-05T03:08:07.093Z,31.87
2019-05-05T03:10:36.863Z,31.83
2019-05-05T03:13:07.266Z,27.33
2019-05-05T03:15:45.404Z,29.73
2019-05-05T03:18:14.811Z,29.53
2019-05-05T03:20:44.806Z,31.80
2019-05-05T03:23:14.676Z,28.40
2019-05-05T03:25:45.175Z,33.47
2019-05-05T03:28:14.941Z,32.97
2019-05-05T03:30:45.776Z,33.23
2019-05-05T03:33:16.385Z,34.00
2019-05-05T03:35:46.528Z,36.43
2019-05-05T03:38:16.790Z,35.60
2019-05-05T03:40:48.258Z,39.43
2019-05-05T03:43:25.456Z,38.77
2019-05-05T03:45:56.797Z,39.20
2019-05-05T03:48:26.466Z,41.87
2019-05-05T03:50:56.031Z,38.37
2019-05-05T03:53:25.536Z,42.30
2019-05-05T03:55:55.605Z,42.70
2019-05-05T03:58:25.571Z,42.00
2019-05-05T04:01:14.535Z,41.93
2019-05-05T04:03:43.945Z,43.83
2019-05-05T04:06:14.670Z,42.27
2019-05-05T04:08:45.091Z,41.43
2019-05-05T04:11:14.467Z,35.87
2019-05-05T04:13:44.152Z,39.50
2019-05-05T04:16:15.476Z,38.23
2019-05-05T04:18:54.108Z,37.93
2019-05-05T04:21:31.273Z,36.63
2019-05-05T04:23:54.386Z,35.57
2019-05-05T04:26:23.749Z,38.70
2019-05-05T04:28:54.167Z,34.60
2019-05-05T04:31:24.210Z,38.27
2019-05-05T04:33:53.900Z,34.07
2019-05-05T04:36:23.627Z,36.77
2019-05-05T04:38:54.608Z,35.83
2019-05-05T04:41:24.614Z,37.73
2019-05-05T04:43:54.690Z,45.90
2019-05-05T04:46:24.623Z,44.23
2019-05-05T04:48:58.008Z,45.93
2019-05-05T04:51:46.237Z,42.43
2019-05-05T04:54:07.596Z,51.43
2019-05-05T04:56:37.221Z,45.03
2019-05-05T04:59:06.590Z,42.03
2019-05-05T05:01:36.542Z,43.27
2019-05-05T05:04:07.556Z,44.30
2019-05-05T05:06:38.494Z,42.37
2019-05-05T05:09:07.920Z,41.20
2019-05-05T05:11:37.216Z,38.60
2019-05-05T05:14:06.622Z,37.83
2019-05-05T05:16:35.952Z,33.93
2019-05-05T05:19:05.339Z,35.50
2019-05-05T05:21:34.561Z,31.97
2019-05-05T05:24:04.137Z,29.23
2019-05-05T05:26:33.703Z,31.70
2019-05-05T05:29:04.531Z,33.63
2019-05-05T05:31:34.085Z,31.23
2019-05-05T05:34:04.372Z,31.93
2019-05-05T05:36:33.974Z,30.13
2019-05-05T05:39:07.663Z,31.97
2019-05-05T05:41:46.902Z,28.43
2019-05-05T05:44:28.178Z,29.20
2019-05-05T05:47:08.422Z,28.17
2019-05-05T05:49:39.448Z,27.20
2019-05-05T05:52:15.982Z,24.63
2019-05-05T05:54:39.903Z,24.63
2019-05-05T05:57:09.404Z,26.07
2019-05-05T05:59:38.774Z,23.90
2019-05-05T06:02:11.722Z,26.17
2019-05-05T06:04:39.258Z,26.90
2019-05-05T06:07:08.627Z,24.80
2019-05-05T06:09:37.965Z,26.50
2019-05-05T06:12:07.454Z,27.37
2019-05-05T06:14:36.753Z,24.70
2019-05-05T06:17:06.167Z,27.90
2019-05-05T06:19:35.524Z,26.57
2019-05-05T06:22:04.898Z,26.57
2019-05-05T06:24:34.690Z,28.83
2019-05-05T06:27:04.090Z,29.73
2019-05-05T06:29:34.504Z,27.87
2019-05-05T06:32:04.430Z,26.33
2019-05-05T06:34:33.997Z,27.80
2019-05-05T06:37:04.268Z,25.57
2019-05-05T06:39:33.995Z,28.10
2019-05-05T06:42:13.655Z,25.23
2019-05-05T06:45:00.566Z,24.10
2019-05-05T06:47:30.911Z,24.30
2019-05-05T06:50:00.213Z,23.57
2019-05-05T06:52:41.892Z,23.87
2019-05-05T06:55:03.743Z,23.53
2019-05-05T06:57:34.302Z,21.13
2019-05-05T07:00:04.928Z,20.00
2019-05-05T07:02:34.365Z,20.23
2019-05-05T07:05:04.241Z,17.70
2019-05-05T07:07:34.283Z,18.33
2019-05-05T07:10:05.264Z,19.00
2019-05-05T07:12:34.843Z,18.53
2019-05-05T07:15:07.040Z,17.57
2019-05-05T07:17:36.490Z,16.67
2019-05-05T07:20:06.950Z,16.90
2019-05-05T07:22:36.281Z,16.23
2019-05-05T07:25:06.438Z,14.23
2019-05-05T07:27:35.805Z,15.10
2019-05-05T07:30:07.072Z,13.80
2019-05-05T07:32:36.491Z,14.77
2019-05-05T07:35:19.767Z,13.97
2019-05-05T07:37:49.207Z,13.83
2019-05-05T07:40:18.576Z,13.43
2019-05-05T07:42:48.062Z,13.20
2019-05-05T07:45:22.511Z,13.27
2019-05-05T07:47:48.433Z,13.00
2019-05-05T07:50:28.546Z,11.87
2019-05-05T07:52:48.915Z,11.63
2019-05-05T07:55:18.303Z,12.10
2019-05-05T07:57:47.731Z,11.37
2019-05-05T08:00:17.549Z,11.50
2019-05-05T08:02:46.918Z,11.57
2019-05-05T08:05:16.449Z,11.20
2019-05-05T08:07:45.676Z,10.13
2019-05-05T08:10:16.183Z,10.70
2019-05-05T08:12:45.528Z,10.23
2019-05-05T08:15:16.690Z,10.93
2019-05-05T08:18:05.750Z,11.03
2019-05-05T08:20:44.339Z,12.00
2019-05-05T08:23:29.100Z,10.47
2019-05-05T08:25:51.203Z,10.50
2019-05-05T08:28:25.237Z,10.87
2019-05-05T08:30:58.653Z,9.50
2019-05-05T08:33:28.031Z,9.13
2019-05-05T08:35:57.426Z,9.47
2019-05-05T08:38:26.753Z,8.90
2019-05-05T08:40:56.041Z,10.30
2019-05-05T08:43:26.414Z,10.40
2019-05-05T08:45:55.772Z,8.67
2019-05-05T08:48:25.078Z,8.07
2019-05-05T08:50:56.963Z,9.07
2019-05-05T08:53:26.310Z,8.27
2019-05-05T08:55:55.686Z,8.03
2019-05-05T08:58:25.008Z,10.17
2019-05-05T09:00:54.408Z,8.27
2019-05-05T09:03:24.365Z,8.97
2019-05-05T09:05:54.342Z,7.87
2019-05-05T09:08:24.198Z,8.17
2019-05-05T09:10:55.214Z,6.80
2019-05-05T09:13:24.887Z,9.03
2019-05-05T09:15:54.457Z,8.33
2019-05-05T09:18:24.582Z,8.13
2019-05-05T09:20:54.241Z,5.93
2019-05-05T09:23:24.097Z,8.50
2019-05-05T09:26:01.254Z,7.87
2019-05-05T09:28:48.824Z,8.37
2019-05-05T09:31:18.147Z,6.93
2019-05-05T09:33:47.585Z,7.03
2019-05-05T09:36:16.896Z,5.40
2019-05-05T09:38:46.602Z,4.93
2019-05-05T09:41:15.978Z,7.03
2019-05-05T09:43:45.295Z,6.97
2019-05-05T09:46:14.806Z,5.73
2019-05-05T09:48:44.189Z,6.13
2019-05-05T09:51:13.675Z,6.53
2019-05-05T09:53:44.828Z,6.87
2019-05-05T09:56:15.210Z,5.60
2019-05-05T09:58:44.582Z,4.77
2019-05-05T10:01:16.463Z,6.87
2019-05-05T10:03:45.778Z,6.43
2019-05-05T10:06:15.174Z,4.00
2019-05-05T10:08:44.775Z,5.97
2019-05-05T10:11:16.541Z,5.13
2019-05-05T10:13:45.224Z,5.23
2019-05-05T10:16:14.607Z,4.80
2019-05-05T10:18:44.829Z,4.87
2019-05-05T10:21:17.582Z,6.27
2019-05-05T10:23:47.340Z,5.17
2019-05-05T10:26:18.778Z,7.10
2019-05-05T10:28:48.163Z,6.37
2019-05-05T10:31:17.601Z,6.80
2019-05-05T10:33:48.752Z,6.03
2019-05-05T10:36:18.126Z,5.70
2019-05-05T10:38:49.042Z,5.17
2019-05-05T10:41:18.501Z,5.83
2019-05-05T10:43:47.980Z,5.27
2019-05-05T10:46:17.361Z,6.53
2019-05-05T10:48:46.705Z,4.50
2019-05-05T10:51:16.115Z,5.53
2019-05-05T10:53:45.425Z,5.73
2019-05-05T10:56:14.813Z,7.13
2019-05-05T10:58:44.370Z,5.50
2019-05-05T11:01:14.529Z,4.80
2019-05-05T11:03:44.736Z,6.40
2019-05-05T11:06:14.437Z,7.37
2019-05-05T11:08:45.127Z,6.00
2019-05-05T11:11:14.855Z,5.40
2019-05-05T11:13:46.493Z,6.27
2019-05-05T11:16:15.858Z,5.20
2019-05-05T11:18:45.346Z,6.80
2019-05-05T11:21:14.860Z,6.80
2019-05-05T11:23:44.937Z,7.27
2019-05-05T11:26:14.531Z,5.23
2019-05-05T11:28:44.519Z,5.67
2019-05-05T11:31:14.366Z,6.13
2019-05-05T11:33:51.392Z,6.23
2019-05-05T11:36:37.417Z,5.97
2019-05-05T11:39:07.728Z,7.77
2019-05-05T11:41:37.087Z,8.10
2019-05-05T11:44:07.348Z,8.80
2019-05-05T11:46:36.857Z,9.50
2019-05-05T11:49:06.184Z,9.20
2019-05-05T11:51:35.565Z,5.83
2019-05-05T11:54:05.049Z,6.77
2019-05-05T11:56:34.409Z,6.23
2019-05-05T11:59:04.073Z,7.17
2019-05-05T12:01:33.618Z,6.17
2019-05-05T12:04:04.620Z,5.70
2019-05-05T12:06:34.120Z,5.73
2019-05-05T12:09:05.513Z,5.93
2019-05-05T12:11:34.985Z,5.13
2019-05-05T12:14:06.043Z,5.40
2019-05-05T12:16:35.319Z,7.30
2019-05-05T12:19:09.438Z,8.37
2019-05-05T12:21:38.744Z,8.37
2019-05-05T12:24:09.740Z,9.40
2019-05-05T12:26:40.667Z,10.03
2019-05-05T12:29:11.039Z,12.10
2019-05-05T12:31:42.027Z,10.10
2019-05-05T12:34:11.389Z,9.03
2019-05-05T12:36:40.889Z,10.17
2019-05-05T12:39:14.049Z,9.43
2019-05-05T12:41:43.259Z,9.73
2019-05-05T12:44:14.416Z,12.27
2019-05-05T12:46:45.456Z,10.67
2019-05-05T12:49:14.822Z,8.83
2019-05-05T12:51:44.210Z,9.37
2019-05-05T12:54:14.685Z,8.87
2019-05-05T12:56:44.681Z,8.10
2019-05-05T12:59:15.861Z,7.77
2019-05-05T13:01:45.304Z,6.73
2019-05-05T13:04:14.606Z,6.53
2019-05-05T13:06:45.112Z,6.97
2019-05-05T13:09:16.160Z,8.00
2019-05-05T13:11:45.516Z,7.00
2019-05-05T13:14:15.505Z,7.20
2019-05-05T13:16:52.803Z,7.13
2019-05-05T13:19:34.576Z,6.47
2019-05-05T13:22:08.299Z,6.27
2019-05-05T13:24:43.588Z,10.03
2019-05-05T13:27:19.667Z,6.83
2019-05-05T13:29:45.746Z,8.37
2019-05-05T13:32:15.089Z,6.70
2019-05-05T13:34:44.450Z,6.83
2019-05-05T13:37:14.183Z,7.33
2019-05-05T13:39:44.572Z,11.47
2019-05-05T13:42:14.061Z,14.37
2019-05-05T13:44:57.233Z,14.87
2019-05-05T13:47:26.689Z,15.20
2019-05-05T13:49:57.616Z,17.73
2019-05-05T13:52:26.954Z,18.20
2019-05-05T13:54:56.330Z,17.33
2019-05-05T13:57:25.694Z,17.83
2019-05-05T13:59:55.051Z,17.50
2019-05-05T14:02:24.602Z,17.73
2019-05-05T14:04:54.304Z,18.27
2019-05-05T14:07:24.087Z,19.73
2019-05-05T14:09:54.926Z,20.47
2019-05-05T14:12:24.936Z,19.90
2019-05-05T14:14:54.770Z,22.17
2019-05-05T14:17:24.241Z,20.17
2019-05-05T14:20:02.453Z,21.80
2019-05-05T14:22:24.608Z,20.33
2019-05-05T14:24:55.641Z,21.33
2019-05-05T14:27:25.073Z,19.73
2019-05-05T14:29:57.139Z,19.77
2019-05-05T14:32:28.166Z,19.70
2019-05-05T14:34:59.218Z,20.43
2019-05-05T14:37:36.216Z,21.00
2019-05-05T14:40:09.190Z,21.20
2019-05-05T14:42:38.559Z,18.87
2019-05-05T14:45:08.521Z,17.80
2019-05-05T14:47:37.959Z,15.33
2019-05-05T14:50:07.707Z,14.57
2019-05-05T14:52:37.019Z,13.20
2019-05-05T14:55:08.037Z,12.37
2019-05-05T14:57:37.674Z,14.03
2019-05-05T15:00:11.076Z,12.60
2019-05-05T15:02:40.781Z,13.67
2019-05-05T15:05:28.332Z,12.73
2019-05-05T15:08:02.346Z,11.10
2019-05-05T15:10:48.303Z,10.97
2019-05-05T15:13:19.276Z,11.10
2019-05-05T15:15:48.667Z,10.53
2019-05-05T15:18:18.060Z,9.60
2019-05-05T15:20:47.863Z,10.20
2019-05-05T15:23:17.240Z,10.57
2019-05-05T15:25:46.640Z,10.13
2019-05-05T15:28:16.047Z,10.37
2019-05-05T15:30:45.466Z,11.67
2019-05-05T15:33:14.856Z,11.03
2019-05-05T15:35:46.508Z,13.43
2019-05-05T15:38:15.436Z,9.90
2019-05-05T15:40:47.785Z,12.57
2019-05-05T15:43:15.960Z,10.23
2019-05-05T15:45:46.453Z,9.67
2019-05-05T15:48:16.016Z,10.17
2019-05-05T15:50:45.414Z,10.00
2019-05-05T15:53:14.868Z,9.87
2019-05-05T15:55:51.029Z,9.73
2019-05-05T15:58:24.513Z,10.00
2019-05-05T16:00:54.597Z,10.47
2019-05-05T16:03:24.144Z,10.20
2019-05-05T16:05:54.287Z,10.10
2019-05-05T16:08:23.871Z,11.23
2019-05-05T16:10:54.730Z,9.77
2019-05-05T16:13:24.284Z,9.93
2019-05-05T16:15:55.784Z,10.13
2019-05-05T16:18:27.136Z,9.13
2019-05-05T16:21:01.299Z,8.80
2019-05-05T16:23:35.928Z,8.70
2019-05-05T16:26:05.449Z,10.23
2019-05-05T16:28:34.815Z,8.70
2019-05-05T16:31:05.416Z,8.53
2019-05-05T16:33:35.098Z,8.40
2019-05-05T16:36:06.325Z,8.83
2019-05-05T16:38:36.523Z,8.30
2019-05-05T16:41:06.367Z,8.20
2019-05-05T16:43:35.708Z,9.17
2019-05-05T16:46:05.225Z,10.57
2019-05-05T16:48:34.655Z,8.20
2019-05-05T16:51:05.687Z,14.90
2019-05-05T16:53:36.141Z,10.27
2019-05-05T16:56:08.952Z,11.40
2019-05-05T16:58:38.589Z,10.23
2019-05-05T17:01:09.615Z,10.47
2019-05-05T17:03:39.074Z,9.17
2019-05-05T17:06:08.602Z,7.30
2019-05-05T17:08:38.182Z,10.10
2019-05-05T17:11:07.787Z,9.63
2019-05-05T17:13:44.133Z,15.47
2019-05-05T17:16:34.996Z,25.47
2019-05-05T17:19:04.775Z,23.53
2019-05-05T17:21:41.912Z,15.87
2019-05-05T17:24:11.442Z,10.93
2019-05-05T17:26:40.818Z,11.97
2019-05-05T17:29:12.117Z,10.60
2019-05-05T17:31:41.941Z,11.83
2019-05-05T17:34:11.352Z,10.00
2019-05-05T17:36:40.721Z,9.60
2019-05-05T17:39:10.217Z,11.07
2019-05-05T17:41:47.915Z,14.13
2019-05-05T17:44:24.109Z,13.43
2019-05-05T17:46:55.485Z,13.20
2019-05-05T17:49:43.541Z,12.37
2019-05-05T17:52:18.536Z,11.47
2019-05-05T17:54:49.993Z,12.30
2019-05-05T17:57:19.473Z,13.27
2019-05-05T17:59:48.953Z,14.17
2019-05-05T18:02:18.467Z,14.07
2019-05-05T18:04:48.108Z,13.80
2019-05-05T18:07:37.454Z,14.03
2019-05-05T18:10:09.008Z,11.87
2019-05-05T18:12:55.957Z,11.47
2019-05-05T18:15:43.543Z,11.53
2019-05-05T18:18:13.947Z,10.13
2019-05-05T18:20:44.940Z,9.47
2019-05-05T18:23:14.462Z,10.90
2019-05-05T18:25:44.242Z,11.37
2019-05-05T18:28:19.730Z,11.73
2019-05-05T18:30:45.294Z,12.20
2019-05-05T18:33:14.714Z,13.30
2019-05-05T18:35:44.578Z,11.90
2019-05-05T18:38:13.980Z,13.47
2019-05-05T18:40:44.071Z,12.60
2019-05-05T18:43:15.284Z,12.87
2019-05-05T18:45:44.675Z,13.00
2019-05-05T18:48:14.087Z,12.53
2019-05-05T18:50:43.547Z,14.37
2019-05-05T18:53:14.085Z,12.80
2019-05-05T18:55:44.606Z,13.23
2019-05-05T18:58:26.875Z,12.93
2019-05-05T19:00:58.920Z,14.03
2019-05-05T19:03:44.900Z,14.50
2019-05-05T19:06:18.618Z,13.73
2019-05-05T19:08:57.207Z,12.87
2019-05-05T19:11:26.876Z,12.40
2019-05-05T19:13:56.593Z,12.73
2019-05-05T19:16:26.167Z,12.53
2019-05-05T19:18:55.777Z,13.83
2019-05-05T19:21:29.986Z,12.37
2019-05-05T19:23:59.451Z,12.13
2019-05-05T19:26:29.246Z,13.90
2019-05-05T19:28:58.773Z,12.03
2019-05-05T19:31:28.348Z,9.87
2019-05-05T19:33:57.768Z,10.40
2019-05-05T19:36:27.561Z,10.33
2019-05-05T19:38:57.200Z,9.57
2019-05-05T19:41:26.654Z,8.73
2019-05-05T19:43:56.155Z,7.90
2019-05-05T19:46:30.398Z,8.47
2019-05-05T19:49:19.581Z,8.13
2019-05-05T19:51:49.847Z,7.97
2019-05-05T19:54:19.277Z,7.63
2019-05-05T19:56:48.969Z,6.77
2019-05-05T19:59:18.702Z,6.27
2019-05-05T20:01:48.202Z,7.27
2019-05-05T20:04:17.605Z,6.77
2019-05-05T20:06:47.090Z,7.10
2019-05-05T20:09:16.539Z,7.10
2019-05-05T20:11:45.921Z,6.60
2019-05-05T20:14:15.396Z,7.37
2019-05-05T20:17:04.883Z,6.37
2019-05-05T20:19:36.296Z,6.37
2019-05-05T20:22:06.062Z,5.30
2019-05-05T20:24:35.564Z,6.97
2019-05-05T20:27:05.138Z,4.53
2019-05-05T20:29:37.396Z,5.50
2019-05-05T20:32:06.006Z,4.53
2019-05-05T20:34:37.169Z,5.27
2019-05-05T20:37:08.330Z,4.50
2019-05-05T20:39:39.135Z,4.57
2019-05-05T20:42:08.751Z,6.43
2019-05-05T20:44:38.576Z,7.23
2019-05-05T20:47:07.873Z,7.80
2019-05-05T20:49:37.853Z,9.17
2019-05-05T20:52:07.433Z,6.23
2019-05-05T20:54:36.857Z,4.93
2019-05-05T20:57:06.231Z,5.60
2019-05-05T20:59:35.566Z,7.73
2019-05-05T21:02:05.052Z,6.03
2019-05-05T21:04:34.732Z,4.63
2019-05-05T21:07:04.742Z,4.67
2019-05-05T21:09:34.673Z,6.03
2019-05-05T21:12:04.875Z,5.13
2019-05-05T21:14:37.878Z,4.97
2019-05-05T21:17:05.829Z,5.47
2019-05-05T21:19:35.190Z,4.97
2019-05-05T21:22:22.704Z,5.30
2019-05-05T21:24:54.240Z,6.13
2019-05-05T21:27:24.482Z,5.63
2019-05-05T21:29:54.387Z,4.73
2019-05-05T21:32:25.377Z,4.67
2019-05-05T21:34:55.215Z,5.00
2019-05-05T21:37:24.984Z,5.47
2019-05-05T21:39:55.165Z,5.30
2019-05-05T21:42:24.885Z,5.33
2019-05-05T21:44:54.142Z,5.60
2019-05-05T21:47:24.057Z,6.20
2019-05-05T21:49:54.485Z,4.97
2019-05-05T21:52:25.410Z,6.63
2019-05-05T21:54:56.487Z,6.57
2019-05-05T21:57:36.218Z,6.13
2019-05-05T22:00:11.064Z,5.77
2019-05-05T22:02:40.697Z,5.50
2019-05-05T22:05:10.238Z,6.03
2019-05-05T22:07:39.609Z,6.00
2019-05-05T22:10:09.373Z,6.17
2019-05-05T22:12:38.739Z,5.77
2019-05-05T22:15:08.796Z,4.83
2019-05-05T22:17:40.612Z,4.60
2019-05-05T22:20:11.821Z,6.33
2019-05-05T22:22:45.037Z,5.60
2019-05-05T22:25:14.202Z,5.73
2019-05-05T22:27:44.107Z,5.83
2019-05-05T22:30:14.336Z,6.03
2019-05-05T22:32:44.224Z,7.03
2019-05-05T22:35:16.172Z,6.10
2019-05-05T22:37:44.977Z,6.83
2019-05-05T22:40:24.340Z,7.43
2019-05-05T22:42:54.762Z,6.90
2019-05-05T22:45:24.196Z,7.33
2019-05-05T22:47:54.320Z,7.93
2019-05-05T22:50:24.663Z,8.77
2019-05-05T22:52:54.623Z,9.10
2019-05-05T22:55:24.791Z,8.87
2019-05-05T22:57:54.589Z,9.23
2019-05-05T23:00:29.231Z,9.27
2019-05-05T23:02:57.598Z,9.13
2019-05-05T23:05:34.656Z,9.40
2019-05-05T23:08:05.084Z,7.93
2019-05-05T23:10:35.376Z,8.63
2019-05-05T23:13:04.779Z,7.97
2019-05-05T23:15:35.791Z,9.10
2019-05-05T23:18:07.183Z,8.07
2019-05-05T23:21:07.032Z,8.93
2019-05-05T23:23:50.154Z,9.10
2019-05-05T23:26:29.729Z,9.47
2019-05-05T23:28:59.188Z,11.17
2019-05-05T23:31:28.412Z,9.07
2019-05-05T23:33:59.046Z,8.70
2019-05-05T23:36:28.398Z,9.63
2019-05-05T23:38:57.687Z,11.70
2019-05-05T23:41:27.092Z,12.10
2019-05-05T23:43:56.313Z,15.30
2019-05-05T23:46:25.703Z,14.20
2019-05-05T23:48:55.109Z,9.37
2019-05-05T23:51:24.394Z,7.87
2019-05-05T23:53:55.087Z,8.47
2019-05-05T23:56:24.602Z,9.00
2019-05-05T23:58:54.996Z,9.37
